Time;durP1;ratioP1;P1;durP2;ratioP2;P2;SDS_P1;SDS_P2;PMS_P1;PMS_P2;Temp;Humidity;BMP_temperature;BMP_pressure;BME280_temperature;BME280_humidity;BME280_pressure;Samples;Min_cycle;Max_cycle;Signal;HPM_P1;HPM_P2
2023/01/04 00:02:03;;;;;;;5.82;3.38;;;7.80;99.90;;;;;;5009147;28;20069;-36
2023/01/04 00:04:29;;;;;;;8.75;3.60;;;7.80;99.90;;;;;;5001320;28;20046;-36
2023/01/04 00:06:55;;;;;;;5.40;3.10;;;7.80;99.90;;;;;;5019496;28;20224;-36
2023/01/04 00:09:21;;;;;;;7.55;3.38;;;7.80;99.90;;;;;;5006240;28;20042;-36
2023/01/04 00:11:47;;;;;;;7.75;3.85;;;7.80;99.90;;;;;;5009540;28;20073;-36
2023/01/04 00:14:13;;;;;;;6.13;3.65;;;7.80;99.90;;;;;;5019809;28;20117;-39
2023/01/04 00:16:39;;;;;;;5.50;3.28;;;7.80;99.90;;;;;;5011977;28;20034;-39
2023/01/04 00:19:04;;;;;;;5.03;3.60;;;7.80;99.90;;;;;;5001178;28;20557;-38
2023/01/04 00:21:30;;;;;;;8.77;4.00;;;7.80;99.90;;;;;;5013399;28;20045;-36
2023/01/04 00:23:59;;;;;;;8.40;2.72;;;7.80;99.90;;;;;;5012264;28;20034;-36
2023/01/04 00:26:31;;;;;;;8.30;3.80;;;7.80;99.90;;;;;;5011430;28;20488;-36
2023/01/04 00:29:00;;;;;;;7.35;3.50;;;7.80;99.90;;;;;;5003215;28;20120;-36
2023/01/04 00:31:27;;;;;;;6.88;3.17;;;7.80;99.90;;;;;;5010362;28;20033;-36
2023/01/04 00:33:57;;;;;;;7.22;3.20;;;7.80;99.90;;;;;;5005302;28;20045;-37
2023/01/04 00:36:23;;;;;;;6.88;3.35;;;7.80;99.90;;;;;;5001234;28;20090;-38
2023/01/04 00:39:08;;;;;;;7.88;3.30;;;7.80;99.90;;;;;;5006296;28;20515;-37
2023/01/04 00:41:36;;;;;;;7.25;3.38;;;7.80;99.90;;;;;;5010105;28;20113;-38
2023/01/04 00:44:04;;;;;;;9.32;3.60;;;7.70;99.90;;;;;;5004109;28;20038;-38
2023/01/04 00:46:31;;;;;;;5.70;3.50;;;7.70;99.90;;;;;;4999467;28;20100;-37
2023/01/04 00:48:56;;;;;;;8.88;3.45;;;7.70;99.90;;;;;;5000649;28;20046;-38
2023/01/04 00:51:22;;;;;;;6.55;3.92;;;7.70;99.90;;;;;;4996080;28;20565;-38
2023/01/04 00:53:51;;;;;;;5.28;3.55;;;7.70;99.90;;;;;;5001516;28;20069;-38
2023/01/04 00:56:17;;;;;;;6.22;3.55;;;7.60;99.90;;;;;;4999724;28;20046;-38
2023/01/04 00:58:43;;;;;;;6.45;3.60;;;7.60;99.90;;;;;;4995670;28;20042;-38
2023/01/04 01:01:09;;;;;;;4.72;3.47;;;7.60;99.90;;;;;;5007424;28;20049;-38
2023/01/04 01:03:35;;;;;;;5.00;3.22;;;7.60;99.90;;;;;;5003616;28;20391;-38
2023/01/04 01:06:02;;;;;;;10.93;3.72;;;7.60;99.90;;;;;;5005265;28;20033;-38
2023/01/04 01:08:28;;;;;;;7.78;3.92;;;7.60;99.90;;;;;;5012927;28;20041;-38
2023/01/04 01:10:54;;;;;;;8.77;3.85;;;7.60;99.90;;;;;;5007128;28;20031;-38
2023/01/04 01:13:21;;;;;;;4.50;3.05;;;7.70;99.90;;;;;;5016247;28;20045;-37
2023/01/04 01:15:47;;;;;;;9.05;3.53;;;7.60;99.90;;;;;;5003922;28;20034;-38
2023/01/04 01:18:13;;;;;;;8.77;4.00;;;7.60;99.90;;;;;;5010112;28;20634;-38
2023/01/04 01:20:45;;;;;;;10.95;4.05;;;7.70;99.90;;;;;;4994379;28;20035;-38
2023/01/04 01:23:12;;;;;;;6.85;4.20;;;7.70;99.90;;;;;;4996916;28;20377;-38
2023/01/04 01:25:39;;;;;;;8.07;3.72;;;7.60;99.90;;;;;;5000612;28;20029;-38
2023/01/04 01:28:05;;;;;;;10.88;5.10;;;7.60;99.90;;;;;;5001685;28;20073;-38
2023/01/04 01:30:30;;;;;;;4.65;4.13;;;7.60;99.90;;;;;;5006734;28;20078;-39
2023/01/04 01:32:56;;;;;;;6.93;3.80;;;7.70;99.90;;;;;;5005059;28;20046;-39
2023/01/04 01:35:22;;;;;;;13.27;5.00;;;7.60;99.90;;;;;;5008530;28;20546;-39
2023/01/04 01:37:48;;;;;;;9.60;4.20;;;7.60;99.90;;;;;;5011427;28;20076;-38
2023/01/04 01:40:13;;;;;;;8.23;4.15;;;7.60;99.90;;;;;;5007138;28;20046;-39
2023/01/04 01:42:39;;;;;;;4.80;3.92;;;7.60;99.90;;;;;;5008029;28;20030;-39
2023/01/04 01:45:20;;;;;;;9.27;4.38;;;7.60;99.90;;;;;;4988270;28;20190;-38
2023/01/04 01:47:48;;;;;;;8.63;4.57;;;7.60;99.90;;;;;;5014764;28;20043;-38
2023/01/04 01:50:20;;;;;;;7.53;4.55;;;7.60;99.90;;;;;;5000749;28;20034;-39
2023/01/04 01:52:47;;;;;;;7.65;4.13;;;7.60;99.90;;;;;;5003675;28;20076;-39
2023/01/04 01:55:15;;;;;;;8.18;4.80;;;7.60;99.90;;;;;;5013387;28;20530;-39
2023/01/04 01:57:42;;;;;;;9.07;4.50;;;7.60;99.90;;;;;;4998357;28;20504;-39
2023/01/04 02:00:13;;;;;;;7.28;4.05;;;7.60;99.90;;;;;;5000621;28;20125;-38
2023/01/04 02:03:02;;;;;;;13.90;4.72;;;7.70;99.90;;;;;;4999702;28;20106;-38
2023/01/04 02:05:30;;;;;;;9.95;4.40;;;7.70;99.90;;;;;;5010177;28;20539;-38
2023/01/04 02:07:56;;;;;;;9.20;4.60;;;7.70;99.90;;;;;;5004697;28;20042;-38
2023/01/04 02:10:23;;;;;;;10.55;4.80;;;7.70;99.90;;;;;;5003940;28;20060;-38
2023/01/04 02:12:50;;;;;;;8.52;4.60;;;7.70;99.90;;;;;;5008868;28;20056;-38
2023/01/04 02:15:16;;;;;;;9.07;5.05;;;7.80;99.90;;;;;;5007837;28;20395;-38
2023/01/04 02:18:03;;;;;;;8.30;4.43;;;7.80;99.90;;;;;;5000958;28;20034;-38
2023/01/04 02:20:43;;;;;;;9.73;4.20;;;7.80;99.90;;;;;;4989942;28;20046;-38
2023/01/04 02:23:43;;;;;;;6.25;4.40;;;7.80;99.90;;;;;;4979751;28;20039;-38
2023/01/04 02:26:27;;;;;;;6.75;4.35;;;7.80;99.90;;;;;;5018079;28;20038;-39
2023/01/04 02:29:23;;;;;;;5.72;4.40;;;7.80;99.90;;;;;;5024321;28;21085;-39
2023/01/04 02:31:55;;;;;;;7.05;4.05;;;7.90;99.90;;;;;;5024999;28;20053;-38
2023/01/04 02:34:45;;;;;;;6.40;4.07;;;7.90;99.90;;;;;;5014150;28;20029;-38
2023/01/04 02:37:26;;;;;;;9.07;4.68;;;7.90;99.90;;;;;;5000035;28;20046;-38
2023/01/04 02:40:13;;;;;;;4.60;3.78;;;7.90;99.90;;;;;;5027983;28;20143;-38
2023/01/04 02:46:07;;;;;;;6.95;3.75;;;8.00;99.90;;;;;;4956673;28;20043;-38
2023/01/04 02:51:28;;;;;;;6.03;3.80;;;8.10;99.90;;;;;;4991140;28;20052;-39
2023/01/04 02:53:55;;;;;;;5.38;3.72;;;8.10;99.90;;;;;;5012927;28;20333;-38
2023/01/04 02:56:36;;;;;;;7.00;3.80;;;8.10;99.90;;;;;;5002593;28;20035;-39
2023/01/04 02:59:08;;;;;;;9.55;4.50;;;8.10;99.90;;;;;;5022153;28;20042;-38
2023/01/04 03:07:38;;;;;;;6.28;3.78;;;8.30;99.90;;;;;;5018525;28;20095;-39
2023/01/04 03:10:36;;;;;;;6.70;3.92;;;8.30;99.90;;;;;;5004508;28;20439;-39
2023/01/04 03:13:17;;;;;;;4.43;3.03;;;8.30;99.90;;;;;;5012849;28;20049;-39
2023/01/04 03:15:48;;;;;;;4.82;3.42;;;8.30;99.90;;;;;;5003556;28;20075;-40
2023/01/04 03:18:19;;;;;;;4.32;3.38;;;8.30;99.90;;;;;;5004928;28;20038;-39
2023/01/04 03:20:47;;;;;;;3.58;2.97;;;8.30;99.90;;;;;;4999024;28;20039;-39
2023/01/04 03:35:26;;;;;;;5.07;3.50;;;8.60;99.90;;;;;;5006467;28;20046;-39
2023/01/04 03:49:56;;;;;;;3.47;3.13;;;8.90;99.90;;;;;;5012830;28;20395;-39
2023/01/04 03:52:27;;;;;;;5.80;4.30;;;8.90;99.90;;;;;;5009763;28;20042;-39
2023/01/04 03:54:54;;;;;;;5.00;4.30;;;8.90;99.90;;;;;;5004172;28;20137;-39
2023/01/04 03:57:22;;;;;;;6.70;4.57;;;9.00;99.90;;;;;;5016122;28;20426;-39
2023/01/04 04:00:08;;;;;;;5.93;4.60;;;9.00;99.90;;;;;;5013584;28;20092;-39
2023/01/04 04:02:34;;;;;;;12.35;7.47;;;9.00;99.90;;;;;;5004229;28;20084;-39
2023/01/04 04:10:29;;;;;;;5.38;4.13;;;9.10;99.90;;;;;;5009472;28;20067;-39
2023/01/04 04:12:55;;;;;;;8.50;5.00;;;9.10;99.90;;;;;;5005570;28;20042;-39
2023/01/04 04:15:20;;;;;;;6.03;5.30;;;9.10;99.90;;;;;;4999858;28;20042;-39
2023/01/04 04:17:46;;;;;;;6.35;4.40;;;9.10;99.90;;;;;;5006864;28;20096;-39
2023/01/04 04:20:12;;;;;;;5.40;4.78;;;9.10;99.90;;;;;;4995556;28;20451;-39
2023/01/04 04:22:38;;;;;;;5.47;4.60;;;9.20;99.90;;;;;;5005903;28;20031;-39
2023/01/04 04:25:04;;;;;;;5.25;4.60;;;9.20;99.90;;;;;;5000343;28;20061;-39
2023/01/04 04:27:30;;;;;;;5.72;4.70;;;9.20;99.90;;;;;;5005405;28;20065;-39
2023/01/04 04:29:55;;;;;;;4.85;4.35;;;9.30;99.90;;;;;;5005807;28;20081;-39
2023/01/04 04:32:21;;;;;;;6.05;4.28;;;9.30;99.90;;;;;;4992650;28;20487;-38
2023/01/04 04:34:48;;;;;;;4.45;4.05;;;9.30;99.90;;;;;;5005474;28;20050;-38
2023/01/04 04:37:14;;;;;;;4.82;4.30;;;9.40;99.90;;;;;;5005913;28;20507;-40
2023/01/04 04:39:39;;;;;;;4.25;3.88;;;9.40;99.90;;;;;;5034073;28;20029;-38
2023/01/04 04:42:05;;;;;;;3.78;3.08;;;9.40;99.90;;;;;;5009256;28;20046;-39
2023/01/04 04:44:33;;;;;;;4.90;4.15;;;9.50;99.90;;;;;;5013897;28;20491;-38
2023/01/04 04:46:59;;;;;;;4.18;3.78;;;9.50;99.90;;;;;;5016053;28;20511;-38
2023/01/04 04:49:25;;;;;;;5.38;3.70;;;9.50;99.90;;;;;;4996955;28;20117;-39
2023/01/04 04:51:51;;;;;;;4.05;3.70;;;9.50;99.90;;;;;;5004326;28;20455;-39
2023/01/04 04:54:20;;;;;;;4.22;3.63;;;9.60;99.90;;;;;;4990861;28;20077;-39
2023/01/04 04:56:47;;;;;;;6.32;4.50;;;9.60;99.90;;;;;;5003018;28;20045;-39
2023/01/04 04:59:13;;;;;;;7.63;4.65;;;9.60;99.90;;;;;;5005881;28;20038;-39
2023/01/04 05:01:39;;;;;;;4.25;3.85;;;9.60;99.90;;;;;;5002528;28;20372;-38
2023/01/04 05:04:04;;;;;;;5.13;4.20;;;9.70;99.90;;;;;;4998136;28;20065;-39
2023/01/04 05:06:30;;;;;;;6.70;5.40;;;9.70;99.90;;;;;;5004717;28;20042;-39
2023/01/04 05:08:56;;;;;;;5.95;5.35;;;9.70;99.90;;;;;;5004184;28;20113;-38
2023/01/04 05:14:07;;;;;;;7.00;5.57;;;9.70;99.90;;;;;;5006921;28;20040;-39
2023/01/04 05:16:33;;;;;;;5.95;5.22;;;9.70;99.90;;;;;;5002774;28;20050;-39
2023/01/04 05:18:59;;;;;;;6.75;6.05;;;9.70;99.90;;;;;;5007247;28;20042;-39
2023/01/04 05:21:25;;;;;;;5.45;4.68;;;9.80;99.90;;;;;;5008650;28;20037;-38
2023/01/04 05:23:51;;;;;;;7.40;5.63;;;9.80;99.90;;;;;;5005844;28;20034;-38
2023/01/04 05:26:17;;;;;;;4.97;4.47;;;9.80;99.90;;;;;;5007158;28;20121;-39
2023/01/04 05:28:45;;;;;;;6.93;6.22;;;9.90;99.90;;;;;;5000479;28;20542;-39
2023/01/04 05:31:11;;;;;;;7.03;6.28;;;9.90;99.90;;;;;;4998822;28;20041;-39
2023/01/04 05:33:37;;;;;;;8.35;6.28;;;9.90;99.90;;;;;;5007130;28;20030;-39
2023/01/04 05:36:03;;;;;;;8.27;7.40;;;9.90;99.90;;;;;;5010547;28;20100;-39
2023/01/04 05:38:29;;;;;;;10.32;7.55;;;10.00;99.90;;;;;;5000243;28;20518;-39
2023/01/04 05:40:55;;;;;;;9.00;7.28;;;10.00;99.90;;;;;;5003863;28;20144;-39
2023/01/04 05:43:23;;;;;;;8.45;6.90;;;10.00;99.90;;;;;;5004474;28;20117;-39
2023/01/04 05:45:54;;;;;;;8.63;7.13;;;10.00;99.90;;;;;;5005411;28;20057;-39
2023/01/04 05:48:21;;;;;;;9.07;7.45;;;10.00;99.90;;;;;;4994187;28;20038;-39
2023/01/04 05:50:47;;;;;;;9.63;7.90;;;10.10;99.90;;;;;;4991179;28;20038;-39
2023/01/04 05:53:16;;;;;;;9.48;8.25;;;10.10;99.90;;;;;;4996179;28;20053;-39
2023/01/04 05:55:42;;;;;;;10.38;8.38;;;10.10;99.90;;;;;;5006485;28;20042;-39
2023/01/04 05:58:08;;;;;;;10.93;8.55;;;10.10;99.90;;;;;;5020880;28;20460;-39
2023/01/04 06:00:34;;;;;;;10.70;8.63;;;10.20;99.90;;;;;;5006301;28;20137;-39
2023/01/04 06:03:00;;;;;;;11.18;8.85;;;10.10;99.90;;;;;;5009458;28;20060;-39
2023/01/04 06:05:26;;;;;;;12.55;8.25;;;10.20;99.90;;;;;;5006916;28;20397;-39
2023/01/04 06:07:52;;;;;;;12.35;8.82;;;10.20;99.90;;;;;;5007695;28;20049;-39
2023/01/04 06:10:18;;;;;;;10.07;8.05;;;10.20;99.90;;;;;;5015342;28;20052;-39
2023/01/04 06:12:45;;;;;;;9.77;8.38;;;10.20;99.90;;;;;;5012096;28;20455;-39
2023/01/04 06:15:12;;;;;;;10.93;7.97;;;10.20;99.90;;;;;;5006073;28;20078;-40
2023/01/04 06:17:38;;;;;;;11.38;8.40;;;10.30;99.90;;;;;;5002984;28;20061;-39
2023/01/04 06:20:07;;;;;;;10.10;8.18;;;10.30;99.90;;;;;;5025326;28;20042;-39
2023/01/04 06:22:33;;;;;;;11.70;7.90;;;10.30;99.90;;;;;;5029660;28;20530;-39
2023/01/04 06:24:59;;;;;;;9.68;7.80;;;10.30;99.90;;;;;;5011137;28;20038;-39
2023/01/04 06:27:25;;;;;;;10.90;8.02;;;10.30;99.90;;;;;;5013246;28;20467;-40
2023/01/04 06:29:51;;;;;;;14.75;8.57;;;10.40;99.90;;;;;;5013458;28;20042;-39
2023/01/04 06:32:17;;;;;;;9.77;7.90;;;10.40;99.90;;;;;;5013459;28;20046;-39
2023/01/04 06:34:43;;;;;;;12.48;8.30;;;10.40;99.90;;;;;;5009530;28;20500;-40
2023/01/04 06:37:09;;;;;;;8.02;7.22;;;10.40;99.90;;;;;;5009394;28;20038;-39
2023/01/04 06:39:36;;;;;;;9.35;6.70;;;10.40;99.90;;;;;;5018508;28;20095;-40
2023/01/04 06:42:02;;;;;;;7.35;6.00;;;10.40;99.90;;;;;;5010778;28;20045;-40
2023/01/04 06:44:28;;;;;;;7.72;6.57;;;10.40;99.90;;;;;;5014605;28;20095;-40
2023/01/04 06:46:53;;;;;;;6.22;5.28;;;10.40;99.90;;;;;;5021184;28;20124;-39
2023/01/04 06:49:19;;;;;;;6.70;5.85;;;10.40;99.90;;;;;;5009116;28;20048;-40
2023/01/04 06:51:46;;;;;;;8.80;5.97;;;10.40;99.90;;;;;;5008396;28;20037;-40
2023/01/04 06:54:11;;;;;;;8.73;5.97;;;10.40;99.90;;;;;;5010617;28;20037;-39
2023/01/04 06:56:38;;;;;;;6.85;5.28;;;10.40;99.90;;;;;;5012962;28;20046;-40
2023/01/04 06:59:04;;;;;;;6.38;4.55;;;10.40;99.90;;;;;;5013495;28;20100;-40
2023/01/04 07:01:30;;;;;;;4.68;4.22;;;10.40;99.90;;;;;;5009185;28;20038;-40
2023/01/04 07:03:55;;;;;;;4.78;4.30;;;10.40;99.90;;;;;;5017359;28;20513;-40
2023/01/04 07:06:21;;;;;;;5.97;4.85;;;10.40;99.90;;;;;;5015548;28;20041;-39
2023/01/04 07:08:50;;;;;;;4.43;3.67;;;10.40;99.90;;;;;;5019705;28;20040;-40
2023/01/04 07:11:16;;;;;;;5.72;4.60;;;10.40;99.90;;;;;;5009787;28;20493;-39
2023/01/04 07:13:41;;;;;;;5.75;4.22;;;10.50;99.90;;;;;;5007507;28;20034;-39
2023/01/04 07:16:07;;;;;;;6.13;4.65;;;10.50;99.90;;;;;;5010557;28;20088;-40
2023/01/04 07:18:33;;;;;;;4.85;4.25;;;10.50;99.90;;;;;;5012562;28;20116;-39
2023/01/04 07:20:58;;;;;;;5.10;4.20;;;10.50;99.90;;;;;;5027502;28;20117;-39
2023/01/04 07:23:24;;;;;;;6.22;4.30;;;10.40;99.90;;;;;;5006103;28;20565;-40
2023/01/04 07:25:50;;;;;;;10.15;7.40;;;10.50;99.90;;;;;;5028124;28;20071;-40
2023/01/04 07:29:13;;;;;;;6.43;4.35;;;10.50;99.90;;;;;;5013170;28;20039;-39
2023/01/04 07:31:06;;;;;;;5.70;4.45;;;10.50;99.90;;;;;;5001477;28;20046;-39
2023/01/04 07:33:32;;;;;;;5.15;4.40;;;10.50;99.90;;;;;;5004428;28;20507;-39
2023/01/04 07:36:03;;;;;;;6.63;5.03;;;10.50;99.90;;;;;;5006704;28;20045;-39
2023/01/04 07:38:29;;;;;;;6.88;5.57;;;10.50;99.90;;;;;;5000467;28;20053;-39
2023/01/04 07:40:55;;;;;;;6.78;5.25;;;10.50;99.90;;;;;;5001728;28;20030;-40
2023/01/04 07:43:21;;;;;;;6.78;5.90;;;10.50;99.90;;;;;;5000915;28;20030;-40
2023/01/04 07:45:47;;;;;;;6.57;5.53;;;10.50;99.90;;;;;;4998873;28;20096;-41
2023/01/04 07:48:16;;;;;;;6.82;5.25;;;10.60;99.90;;;;;;5001547;28;20049;-41
2023/01/04 07:50:43;;;;;;;7.72;5.82;;;10.50;99.90;;;;;;5008585;28;20033;-41
2023/01/04 07:53:08;;;;;;;7.13;5.88;;;10.50;99.90;;;;;;5000487;28;20503;-42
2023/01/04 07:55:34;;;;;;;7.30;5.75;;;10.60;99.90;;;;;;5010622;28;20041;-41
2023/01/04 07:58:00;;;;;;;8.25;6.40;;;10.60;99.90;;;;;;5003607;28;20057;-41
2023/01/04 08:00:25;;;;;;;10.43;6.72;;;10.60;99.90;;;;;;4994491;28;20097;-42
2023/01/04 08:02:51;;;;;;;8.10;6.45;;;10.60;99.90;;;;;;5013272;28;20042;-41
2023/01/04 08:05:17;;;;;;;6.93;5.82;;;10.60;99.90;;;;;;5015763;28;20582;-41
2023/01/04 08:07:43;;;;;;;7.45;6.45;;;10.60;99.90;;;;;;5009906;28;20403;-41
2023/01/04 08:10:08;;;;;;;9.07;6.75;;;10.60;99.90;;;;;;5010703;28;20037;-41
2023/01/04 08:12:34;;;;;;;8.20;6.07;;;10.60;99.90;;;;;;5008139;28;20678;-41
2023/01/04 08:15:00;;;;;;;8.35;5.78;;;10.70;99.90;;;;;;5008252;28;20042;-41
2023/01/04 08:17:26;;;;;;;8.75;5.85;;;10.70;99.90;;;;;;5008492;28;20476;-42
2023/01/04 08:19:51;;;;;;;8.88;7.28;;;10.70;99.90;;;;;;5007402;28;20480;-41
2023/01/04 08:22:17;;;;;;;9.48;7.80;;;10.70;99.90;;;;;;5018184;28;20120;-42
2023/01/04 08:24:43;;;;;;;9.77;7.50;;;10.70;99.90;;;;;;5006891;28;20044;-42
2023/01/04 08:27:09;;;;;;;10.32;7.22;;;10.70;99.90;;;;;;5019339;28;20044;-42
2023/01/04 08:29:36;;;;;;;9.43;7.32;;;10.70;99.90;;;;;;5004824;28;20042;-42
2023/01/04 08:32:02;;;;;;;7.82;5.90;;;10.70;99.90;;;;;;4996888;28;20042;-43
2023/01/04 08:34:29;;;;;;;8.73;6.85;;;10.70;99.90;;;;;;5020247;28;20045;-42
2023/01/04 08:36:55;;;;;;;9.55;6.90;;;10.80;99.90;;;;;;5005435;28;20050;-44
2023/01/04 08:39:21;;;;;;;7.50;6.15;;;10.80;99.90;;;;;;5002408;28;20038;-42
2023/01/04 08:41:49;;;;;;;8.20;5.78;;;10.80;99.90;;;;;;5009470;28;20033;-42
2023/01/04 08:44:25;;;;;;;8.57;6.82;;;10.80;99.90;;;;;;5013496;28;20137;-44
2023/01/04 08:46:52;;;;;;;10.48;6.85;;;10.80;99.90;;;;;;5008896;28;20049;-44
2023/01/04 08:49:18;;;;;;;8.98;6.50;;;10.80;99.90;;;;;;4994189;28;20133;-45
2023/01/04 08:51:45;;;;;;;8.45;6.45;;;10.90;99.90;;;;;;5009945;28;20046;-42
2023/01/04 08:54:11;;;;;;;12.15;7.10;;;10.90;99.90;;;;;;4995604;28;20566;-43
2023/01/04 08:56:37;;;;;;;9.90;6.53;;;10.90;99.90;;;;;;4999974;28;20068;-45
2023/01/04 08:59:04;;;;;;;8.80;6.40;;;10.90;99.90;;;;;;5016029;28;20042;-42
2023/01/04 09:01:32;;;;;;;10.63;7.47;;;10.90;99.90;;;;;;5019094;28;20036;-42
2023/01/04 09:03:58;;;;;;;9.60;7.35;;;10.90;99.90;;;;;;5006209;28;20503;-42
2023/01/04 09:06:23;;;;;;;10.05;7.35;;;10.90;99.90;;;;;;5019557;28;20037;-43
2023/01/04 09:08:49;;;;;;;8.10;6.55;;;10.90;99.90;;;;;;5001858;28;20042;-42
2023/01/04 09:11:17;;;;;;;8.07;6.95;;;10.90;99.90;;;;;;5016647;28;20034;-41
2023/01/04 09:13:44;;;;;;;9.95;8.02;;;10.90;99.90;;;;;;5005215;28;20030;-40
2023/01/04 09:16:19;;;;;;;10.88;7.72;;;10.90;99.90;;;;;;5022696;28;20034;-41
2023/01/04 09:18:45;;;;;;;10.77;6.60;;;10.90;99.90;;;;;;5005444;28;20115;-41
2023/01/04 09:21:17;;;;;;;7.97;6.80;;;11.00;99.90;;;;;;5019940;28;21268;-41
2023/01/04 09:23:43;;;;;;;10.18;7.10;;;11.00;99.90;;;;;;5012837;28;20049;-43
2023/01/04 09:26:11;;;;;;;6.60;5.10;;;11.00;99.90;;;;;;5001575;28;20128;-46
2023/01/04 09:28:37;;;;;;;8.35;6.43;;;11.10;99.90;;;;;;5018116;28;20129;-43
2023/01/04 09:31:06;;;;;;;10.45;7.78;;;11.00;99.90;;;;;;5007567;28;20038;-47
2023/01/04 09:33:32;;;;;;;8.10;5.80;;;11.00;99.90;;;;;;5000276;28;20124;-42
2023/01/04 09:36:05;;;;;;;9.63;6.97;;;11.10;99.90;;;;;;5014559;28;20137;-43
2023/01/04 09:38:33;;;;;;;8.32;5.90;;;11.00;99.90;;;;;;5010020;28;20088;-42
2023/01/04 09:41:14;;;;;;;7.80;5.95;;;11.10;99.90;;;;;;5004586;28;20057;-42
2023/01/04 09:43:47;;;;;;;7.07;5.60;;;11.10;99.90;;;;;;5001151;28;20092;-42
2023/01/04 09:46:39;;;;;;;5.60;4.95;;;11.10;99.90;;;;;;5007009;28;20492;-43
2023/01/04 09:49:19;;;;;;;13.55;7.65;;;11.10;99.90;;;;;;4999613;28;20034;-44
2023/01/04 09:51:57;;;;;;;6.63;5.47;;;11.10;99.90;;;;;;4996852;28;20039;-43
2023/01/04 09:54:27;;;;;;;9.80;6.40;;;11.10;99.90;;;;;;4999199;28;20038;-42
2023/01/04 09:56:57;;;;;;;11.02;6.80;;;11.10;99.90;;;;;;5003511;28;20042;-42
2023/01/04 09:59:29;;;;;;;4.65;3.60;;;11.10;99.90;;;;;;5017106;28;20093;-43
2023/01/04 10:02:13;;;;;;;7.70;6.28;;;11.20;99.90;;;;;;4996867;28;20044;-43
2023/01/04 10:04:43;;;;;;;8.23;5.05;;;11.20;99.90;;;;;;5000398;28;20030;-43
2023/01/04 10:07:27;;;;;;;5.90;3.78;;;11.20;99.90;;;;;;5015737;28;20042;-43
2023/01/04 10:09:55;;;;;;;9.80;6.18;;;11.20;99.90;;;;;;5009590;28;20096;-44
2023/01/04 10:12:24;;;;;;;5.88;4.07;;;11.20;99.90;;;;;;5023274;28;20046;-44
2023/01/04 10:14:53;;;;;;;5.47;4.20;;;11.20;99.90;;;;;;5000160;28;20107;-45
2023/01/04 10:17:22;;;;;;;6.70;4.75;;;11.20;99.90;;;;;;5003799;28;20045;-44
2023/01/04 10:19:48;;;;;;;5.28;4.45;;;11.20;99.90;;;;;;5015979;28;20069;-44
2023/01/04 10:22:26;;;;;;;4.75;4.15;;;11.20;99.90;;;;;;5002262;28;20065;-43
2023/01/04 10:25:04;;;;;;;13.30;9.80;;;11.20;99.90;;;;;;5028667;28;20050;-43
2023/01/04 10:27:30;;;;;;;2.25;2.05;;;11.30;99.90;;;;;;5007411;28;20033;-43
2023/01/04 10:29:58;;;;;;;7.88;5.63;;;11.30;99.90;;;;;;5007358;28;20491;-43
2023/01/04 10:32:41;;;;;;;14.68;9.00;;;11.30;99.90;;;;;;5008559;28;20080;-45
2023/01/04 10:35:24;;;;;;;2.72;2.20;;;11.30;99.90;;;;;;4999951;28;20038;-47
2023/01/04 10:38:02;;;;;;;5.82;5.00;;;11.30;99.90;;;;;;5009156;28;20558;-44
2023/01/04 10:40:30;;;;;;;5.30;4.10;;;11.30;99.90;;;;;;5019321;28;20038;-44
2023/01/04 10:43:02;;;;;;;3.00;2.50;;;11.30;99.90;;;;;;5008843;28;20037;-43
2023/01/04 10:45:42;;;;;;;15.60;10.75;;;11.40;99.90;;;;;;5012240;28;20117;-43
2023/01/04 10:48:16;;;;;;;18.77;16.90;;;11.40;99.90;;;;;;5004007;28;20041;-45
2023/01/04 10:50:48;;;;;;;33.92;31.08;;;11.40;99.90;;;;;;5006658;28;20100;-45
2023/01/04 10:53:23;;;;;;;17.27;15.60;;;11.40;99.90;;;;;;5005112;28;20042;-44
2023/01/04 10:55:58;;;;;;;38.58;34.60;;;11.40;99.90;;;;;;5017932;28;20049;-44
2023/01/04 10:58:34;;;;;;;38.20;34.65;;;11.50;99.90;;;;;;5009253;28;20038;-44
2023/01/04 11:01:10;;;;;;;195.70;174.63;;;11.50;99.90;;;;;;5016642;28;20462;-43
2023/01/04 11:03:51;;;;;;;131.27;117.95;;;11.50;99.90;;;;;;4997815;28;20038;-44
2023/01/04 11:06:16;;;;;;;21.73;17.75;;;11.50;99.90;;;;;;5013622;28;20454;-44
2023/01/04 11:08:49;;;;;;;56.28;50.42;;;11.60;99.90;;;;;;5009407;28;20073;-45
2023/01/04 11:11:24;;;;;;;69.40;54.07;;;11.70;99.90;;;;;;5023270;28;20089;-44
2023/01/04 11:13:50;;;;;;;251.57;224.02;;;11.60;99.90;;;;;;5011493;28;20360;-45
2023/01/04 11:16:16;;;;;;;107.68;97.47;;;11.60;99.90;;;;;;5022879;28;20121;-44
2023/01/04 11:18:45;;;;;;;122.22;109.32;;;11.70;99.90;;;;;;5018049;28;20037;-46
2023/01/04 11:21:13;;;;;;;173.27;129.48;;;11.70;99.90;;;;;;5006807;28;20041;-46
2023/01/04 11:23:39;;;;;;;51.20;45.85;;;11.70;99.90;;;;;;5008547;28;20039;-46
2023/01/04 11:26:20;;;;;;;10.23;7.15;;;11.70;99.90;;;;;;5010467;28;20029;-45
2023/01/04 11:29:06;;;;;;;26.67;17.83;;;11.70;99.90;;;;;;5009390;28;20034;-49
2023/01/04 11:31:47;;;;;;;38.83;34.67;;;11.70;99.90;;;;;;5007806;28;20504;-48
2023/01/04 11:34:13;;;;;;;70.40;63.78;;;11.80;99.90;;;;;;5021993;28;20042;-49
2023/01/04 11:36:41;;;;;;;19.98;17.85;;;11.80;99.90;;;;;;5012450;28;20171;-45
2023/01/04 11:39:24;;;;;;;163.65;145.88;;;11.80;99.90;;;;;;5031295;28;20446;-46
2023/01/04 11:42:04;;;;;;;225.20;200.33;;;11.80;99.90;;;;;;5015464;28;20492;-45
2023/01/04 11:44:35;;;;;;;29.00;25.90;;;11.90;99.90;;;;;;5011813;28;20495;-47
2023/01/04 11:47:07;;;;;;;41.88;28.50;;;11.90;99.90;;;;;;5008891;28;20483;-45
2023/01/04 11:49:36;;;;;;;31.27;24.70;;;11.90;99.90;;;;;;5010815;28;20037;-45
2023/01/04 11:52:03;;;;;;;77.93;52.20;;;12.00;99.90;;;;;;5010549;28;20038;-46
2023/01/04 11:54:29;;;;;;;12.57;8.57;;;12.00;99.90;;;;;;5004640;28;20046;-46
2023/01/04 11:57:09;;;;;;;38.45;34.45;;;12.00;99.90;;;;;;5023189;28;20048;-45
2023/01/04 11:59:35;;;;;;;57.83;52.20;;;12.00;99.90;;;;;;5011528;28;20112;-45
2023/01/04 12:02:19;;;;;;;13.75;8.32;;;12.00;99.90;;;;;;5003225;28;20053;-49
2023/01/04 12:04:45;;;;;;;;;;;12.00;99.90;;;;;;5007790;28;20053;-48
2023/01/04 12:07:33;;;;;;;68.35;51.72;;;12.00;99.90;;;;;;5014163;28;19918;-46
2023/01/04 12:10:01;;;;;;;15.35;12.77;;;12.00;99.90;;;;;;5002172;28;20030;-44
2023/01/04 12:12:32;;;;;;;21.45;17.25;;;12.10;99.90;;;;;;4999238;28;20357;-48
2023/01/04 12:15:06;;;;;;;47.08;42.78;;;12.10;99.90;;;;;;5005800;28;20034;-46
2023/01/04 12:17:50;;;;;;;15.30;10.15;;;12.20;99.90;;;;;;5011243;28;20109;-44
2023/01/04 12:20:18;;;;;;;12.20;8.45;;;12.20;99.90;;;;;;5015828;28;20038;-45
2023/01/04 12:22:44;;;;;;;7.82;3.97;;;12.20;99.90;;;;;;4985852;28;20037;-45
2023/01/04 12:25:44;;;;;;;7.97;5.53;;;12.20;99.90;;;;;;4997433;28;20042;-45
2023/01/04 12:28:28;;;;;;;75.60;67.43;;;12.10;99.90;;;;;;4984221;28;20046;-44
2023/01/04 12:30:54;;;;;;;6.60;5.18;;;12.20;99.90;;;;;;5019949;28;20073;-46
2023/01/04 12:33:29;;;;;;;6.85;3.30;;;12.10;99.90;;;;;;5009016;28;20064;-45
2023/01/04 12:36:08;;;;;;;6.72;3.40;;;12.10;99.90;;;;;;5001201;28;20042;-44
2023/01/04 12:38:56;;;;;;;13.50;7.63;;;12.10;99.90;;;;;;5009420;28;20038;-47
2023/01/04 12:41:34;;;;;;;19.02;10.85;;;12.10;99.90;;;;;;5013917;28;20040;-46
2023/01/04 12:44:38;;;;;;;5.90;3.47;;;12.10;99.90;;;;;;5008596;28;20089;-45
2023/01/04 12:50:25;;;;;;;3.22;2.75;;;12.10;99.90;;;;;;5003470;28;20407;-44
2023/01/04 12:52:52;;;;;;;3.45;1.70;;;12.10;99.90;;;;;;5003223;28;20038;-44
2023/01/04 12:55:30;;;;;;;2.17;1.40;;;12.10;99.90;;;;;;5004151;28;20040;-44
2023/01/04 12:58:02;;;;;;;5.18;1.80;;;12.10;99.90;;;;;;5004797;28;20042;-42
2023/01/04 13:00:50;;;;;;;5.90;1.70;;;12.10;99.90;;;;;;5002668;28;20053;-42
2023/01/04 13:03:15;;;;;;;2.83;2.20;;;12.10;99.90;;;;;;4986005;28;20069;-41
2023/01/04 13:06:06;;;;;;;6.53;3.00;;;12.10;99.90;;;;;;5009934;28;20092;-43
2023/01/04 13:08:40;;;;;;;3.65;2.10;;;12.10;99.90;;;;;;5007298;28;20049;-41
2023/01/04 13:11:32;;;;;;;8.73;2.38;;;12.10;99.90;;;;;;5005403;28;20038;-41
2023/01/04 13:14:10;;;;;;;5.82;2.65;;;12.10;99.90;;;;;;5004689;28;20042;-41
2023/01/04 13:16:54;;;;;;;8.05;3.33;;;12.10;99.90;;;;;;4997515;28;20038;-42
2023/01/04 13:19:23;;;;;;;11.07;3.92;;;12.10;99.90;;;;;;5008270;28;20139;-42
2023/01/04 13:21:52;;;;;;;8.65;3.42;;;12.10;99.90;;;;;;4995560;28;20030;-42
2023/01/04 13:24:35;;;;;;;10.57;3.03;;;12.10;99.90;;;;;;5019427;28;20038;-43
2023/01/04 13:27:14;;;;;;;10.23;4.05;;;12.00;99.90;;;;;;5008408;28;20499;-41
2023/01/04 13:29:41;;;;;;;11.52;2.95;;;12.10;99.90;;;;;;5019722;28;20049;-42
2023/01/04 13:32:20;;;;;;;12.38;4.75;;;12.10;99.90;;;;;;5021509;28;20116;-43
2023/01/04 13:34:52;;;;;;;12.48;3.40;;;12.10;99.90;;;;;;5010732;28;20446;-42
2023/01/04 13:37:46;;;;;;;13.73;3.72;;;12.10;99.90;;;;;;5016823;28;20042;-42
2023/01/04 13:40:15;;;;;;;7.68;2.47;;;12.10;99.90;;;;;;5007673;28;20042;-44
2023/01/04 13:42:54;;;;;;;10.57;3.40;;;12.10;99.90;;;;;;5000428;28;20407;-41
2023/01/04 13:45:33;;;;;;;7.55;3.75;;;12.10;99.90;;;;;;4998636;28;20065;-42
2023/01/04 13:48:04;;;;;;;14.93;3.53;;;12.10;99.90;;;;;;5018507;28;20065;-42
2023/01/04 13:50:42;;;;;;;16.40;7.65;;;12.10;99.90;;;;;;5004963;28;20427;-42